sensor_id;sensor_type;location;lat;lon;timestamp;pressure;altitude;pressure_sealevel;temperature;humidity
55373;BME280;70018;47.838;16.490;2023-09-18T00:01:58;99335.94;;;13.49;72.76
55373;BME280;70018;47.838;16.490;2023-09-18T00:04:25;99334.34;;;13.48;73.24
55373;BME280;70018;47.838;16.490;2023-09-18T00:06:52;99333.53;;;13.51;74.22
55373;BME280;70018;47.838;16.490;2023-09-18T00:09:18;99341.16;;;13.47;73.39
55373;BME280;70018;47.838;16.490;2023-09-18T00:11:45;99339.53;;;13.46;74.11
55373;BME280;70018;47.838;16.490;2023-09-18T00:14:11;99342.72;;;13.48;73.35
55373;BME280;70018;47.838;16.490;2023-09-18T00:16:38;99327.03;;;13.61;74.36
55373;BME280;70018;47.838;16.490;2023-09-18T00:19:23;99333.44;;;13.58;74.27
55373;BME280;70018;47.838;16.490;2023-09-18T00:21:50;99324.34;;;13.50;73.58
55373;BME280;70018;47.838;16.490;2023-09-18T00:24:18;99330.91;;;13.33;73.48
55373;BME280;70018;47.838;16.490;2023-09-18T00:26:45;99335.84;;;13.19;74.23
55373;BME280;70018;47.838;16.490;2023-09-18T00:29:14;99335.47;;;13.17;74.31
55373;BME280;70018;47.838;16.490;2023-09-18T00:31:41;99320.28;;;13.25;75.27
55373;BME280;70018;47.838;16.490;2023-09-18T00:34:07;99327.28;;;13.36;75.48
55373;BME280;70018;47.838;16.490;2023-09-18T00:36:34;99332.53;;;13.31;74.35
55373;BME280;70018;47.838;16.490;2023-09-18T00:39:00;99323.78;;;13.29;74.53
55373;BME280;70018;47.838;16.490;2023-09-18T00:41:28;99328.50;;;13.35;75.34
55373;BME280;70018;47.838;16.490;2023-09-18T00:43:54;99328.22;;;13.26;74.53
55373;BME280;70018;47.838;16.490;2023-09-18T00:46:22;99324.22;;;13.27;74.38
55373;BME280;70018;47.838;16.490;2023-09-18T00:48:49;99333.72;;;13.30;77.10
55373;BME280;70018;47.838;16.490;2023-09-18T00:51:17;99321.09;;;13.22;76.51
55373;BME280;70018;47.838;16.490;2023-09-18T00:53:44;99330.28;;;13.19;76.73
55373;BME280;70018;47.838;16.490;2023-09-18T00:56:11;99334.25;;;13.18;75.70
55373;BME280;70018;47.838;16.490;2023-09-18T00:58:38;99323.19;;;13.11;75.20
55373;BME280;70018;47.838;16.490;2023-09-18T01:01:05;99316.44;;;13.12;75.81
55373;BME280;70018;47.838;16.490;2023-09-18T01:03:32;99314.38;;;13.16;76.15
55373;BME280;70018;47.838;16.490;2023-09-18T01:05:59;99305.16;;;13.22;76.38
55373;BME280;70018;47.838;16.490;2023-09-18T01:08:25;99308.81;;;13.16;75.89
55373;BME280;70018;47.838;16.490;2023-09-18T01:10:56;99300.44;;;13.16;76.81
55373;BME280;70018;47.838;16.490;2023-09-18T01:13:36;99292.50;;;13.14;75.58
55373;BME280;70018;47.838;16.490;2023-09-18T01:16:14;99293.34;;;13.08;76.93
55373;BME280;70018;47.838;16.490;2023-09-18T01:18:50;99288.66;;;13.01;76.36
55373;BME280;70018;47.838;16.490;2023-09-18T01:21:20;99292.31;;;12.94;77.45
55373;BME280;70018;47.838;16.490;2023-09-18T01:23:48;99284.81;;;12.88;76.20
55373;BME280;70018;47.838;16.490;2023-09-18T01:26:15;99288.03;;;12.86;76.65
55373;BME280;70018;47.838;16.490;2023-09-18T01:28:42;99291.22;;;12.85;78.01
55373;BME280;70018;47.838;16.490;2023-09-18T01:31:08;99286.44;;;12.85;77.48
55373;BME280;70018;47.838;16.490;2023-09-18T01:33:37;99283.69;;;12.82;78.07
55373;BME280;70018;47.838;16.490;2023-09-18T01:36:06;99277.41;;;12.74;77.38
55373;BME280;70018;47.838;16.490;2023-09-18T01:38:35;99279.75;;;12.76;78.28
55373;BME280;70018;47.838;16.490;2023-09-18T01:41:02;99279.41;;;12.74;79.77
55373;BME280;70018;47.838;16.490;2023-09-18T01:43:29;99278.22;;;12.71;78.81
55373;BME280;70018;47.838;16.490;2023-09-18T01:45:57;99273.84;;;12.70;77.96
55373;BME280;70018;47.838;16.490;2023-09-18T01:48:23;99266.66;;;12.73;78.94
55373;BME280;70018;47.838;16.490;2023-09-18T01:50:50;99261.84;;;12.77;79.89
55373;BME280;70018;47.838;16.490;2023-09-18T01:53:17;99269.03;;;12.74;79.56
55373;BME280;70018;47.838;16.490;2023-09-18T01:55:43;99265.09;;;12.72;78.96
55373;BME280;70018;47.838;16.490;2023-09-18T01:58:10;99271.47;;;12.72;79.40
55373;BME280;70018;47.838;16.490;2023-09-18T02:00:41;99265.13;;;12.68;78.37
55373;BME280;70018;47.838;16.490;2023-09-18T02:03:08;99258.81;;;12.64;79.98
55373;BME280;70018;47.838;16.490;2023-09-18T02:05:54;99260.50;;;12.55;79.64
55373;BME280;70018;47.838;16.490;2023-09-18T02:08:21;99260.56;;;12.44;79.39
55373;BME280;70018;47.838;16.490;2023-09-18T02:10:48;99254.59;;;12.42;80.75
55373;BME280;70018;47.838;16.490;2023-09-18T02:13:14;99259.31;;;12.45;79.59
55373;BME280;70018;47.838;16.490;2023-09-18T02:15:41;99258.13;;;12.46;79.96
55373;BME280;70018;47.838;16.490;2023-09-18T02:18:07;99253.81;;;12.38;79.32
55373;BME280;70018;47.838;16.490;2023-09-18T02:20:40;99245.53;;;12.34;79.49
55373;BME280;70018;47.838;16.490;2023-09-18T02:23:07;99250.28;;;12.34;79.99
55373;BME280;70018;47.838;16.490;2023-09-18T02:25:34;99254.31;;;12.29;79.20
55373;BME280;70018;47.838;16.490;2023-09-18T02:28:00;99255.13;;;12.26;79.52
55373;BME280;70018;47.838;16.490;2023-09-18T02:30:27;99252.72;;;12.28;79.70
55373;BME280;70018;47.838;16.490;2023-09-18T02:32:54;99250.03;;;12.18;79.26
55373;BME280;70018;47.838;16.490;2023-09-18T02:35:22;99255.25;;;12.12;79.86
55373;BME280;70018;47.838;16.490;2023-09-18T02:37:48;99252.47;;;12.12;79.71
55373;BME280;70018;47.838;16.490;2023-09-18T02:40:15;99254.53;;;12.05;79.66
55373;BME280;70018;47.838;16.490;2023-09-18T02:42:41;99241.84;;;11.97;79.84
55373;BME280;70018;47.838;16.490;2023-09-18T02:45:08;99250.63;;;11.88;79.93
55373;BME280;70018;47.838;16.490;2023-09-18T02:47:36;99251.13;;;11.80;80.04
55373;BME280;70018;47.838;16.490;2023-09-18T02:50:05;99244.69;;;11.86;80.69
55373;BME280;70018;47.838;16.490;2023-09-18T02:52:31;99244.31;;;11.84;81.61
55373;BME280;70018;47.838;16.490;2023-09-18T02:54:58;99243.16;;;11.82;82.72
55373;BME280;70018;47.838;16.490;2023-09-18T02:57:25;99245.91;;;11.85;84.26
55373;BME280;70018;47.838;16.490;2023-09-18T02:59:51;99235.16;;;11.87;83.51
55373;BME280;70018;47.838;16.490;2023-09-18T03:02:18;99233.13;;;11.95;82.81
55373;BME280;70018;47.838;16.490;2023-09-18T03:04:45;99230.72;;;11.97;83.31
55373;BME280;70018;47.838;16.490;2023-09-18T03:07:14;99225.16;;;11.97;83.15
55373;BME280;70018;47.838;16.490;2023-09-18T03:09:42;99233.09;;;11.98;82.26
55373;BME280;70018;47.838;16.490;2023-09-18T03:12:09;99236.28;;;11.97;83.14
55373;BME280;70018;47.838;16.490;2023-09-18T03:14:36;99239.06;;;11.97;85.41
55373;BME280;70018;47.838;16.490;2023-09-18T03:17:02;99229.50;;;11.98;86.19
55373;BME280;70018;47.838;16.490;2023-09-18T03:19:29;99222.81;;;11.92;84.71
55373;BME280;70018;47.838;16.490;2023-09-18T03:21:55;99229.16;;;11.92;83.78
55373;BME280;70018;47.838;16.490;2023-09-18T03:24:22;99222.81;;;11.88;83.60
55373;BME280;70018;47.838;16.490;2023-09-18T03:26:48;99217.31;;;11.85;83.43
55373;BME280;70018;47.838;16.490;2023-09-18T03:29:15;99222.44;;;11.86;84.19
55373;BME280;70018;47.838;16.490;2023-09-18T03:31:42;99224.41;;;11.89;83.69
55373;BME280;70018;47.838;16.490;2023-09-18T03:34:09;99215.16;;;12.03;84.59
55373;BME280;70018;47.838;16.490;2023-09-18T03:36:35;99210.03;;;11.98;83.57
55373;BME280;70018;47.838;16.490;2023-09-18T03:39:03;99212.84;;;11.94;82.63
55373;BME280;70018;47.838;16.490;2023-09-18T03:41:31;99201.00;;;11.83;82.74
55373;BME280;70018;47.838;16.490;2023-09-18T03:44:01;99208.22;;;11.73;82.76
55373;BME280;70018;47.838;16.490;2023-09-18T03:46:27;99207.44;;;11.73;85.89
55373;BME280;70018;47.838;16.490;2023-09-18T03:48:54;99203.03;;;11.83;86.79
55373;BME280;70018;47.838;16.490;2023-09-18T03:51:21;99176.66;;;11.98;89.52
55373;BME280;70018;47.838;16.490;2023-09-18T03:53:48;99181.72;;;12.10;88.44
55373;BME280;70018;47.838;16.490;2023-09-18T03:56:15;99177.78;;;12.04;88.46
55373;BME280;70018;47.838;16.490;2023-09-18T03:58:42;99181.09;;;11.92;88.31
55373;BME280;70018;47.838;16.490;2023-09-18T04:01:08;99179.56;;;11.84;88.41
55373;BME280;70018;47.838;16.490;2023-09-18T04:03:35;99171.25;;;11.77;88.42
55373;BME280;70018;47.838;16.490;2023-09-18T04:06:02;99173.66;;;11.74;88.51
55373;BME280;70018;47.838;16.490;2023-09-18T04:08:29;99174.84;;;11.73;89.21
55373;BME280;70018;47.838;16.490;2023-09-18T04:10:56;99172.88;;;11.70;88.59
55373;BME280;70018;47.838;16.490;2023-09-18T04:13:24;99165.81;;;11.62;87.70
55373;BME280;70018;47.838;16.490;2023-09-18T04:15:51;99166.69;;;11.52;87.47
55373;BME280;70018;47.838;16.490;2023-09-18T04:18:23;99175.81;;;11.49;88.00
55373;BME280;70018;47.838;16.490;2023-09-18T04:20:49;99171.50;;;11.38;87.22
55373;BME280;70018;47.838;16.490;2023-09-18T04:23:23;99171.16;;;11.32;86.88
55373;BME280;70018;47.838;16.490;2023-09-18T04:25:51;99179.88;;;11.31;88.30
55373;BME280;70018;47.838;16.490;2023-09-18T04:28:20;99182.69;;;11.27;90.07
55373;BME280;70018;47.838;16.490;2023-09-18T04:30:47;99180.66;;;11.31;92.32
55373;BME280;70018;47.838;16.490;2023-09-18T04:33:14;99186.25;;;11.28;92.81
55373;BME280;70018;47.838;16.490;2023-09-18T04:35:42;99178.69;;;11.32;94.58
55373;BME280;70018;47.838;16.490;2023-09-18T04:38:09;99173.13;;;11.28;92.62
55373;BME280;70018;47.838;16.490;2023-09-18T04:40:41;99174.75;;;11.26;91.22
55373;BME280;70018;47.838;16.490;2023-09-18T04:43:08;99170.00;;;11.23;89.96
55373;BME280;70018;47.838;16.490;2023-09-18T04:45:35;99168.84;;;11.17;88.73
55373;BME280;70018;47.838;16.490;2023-09-18T04:48:01;99169.69;;;11.10;88.69
55373;BME280;70018;47.838;16.490;2023-09-18T04:50:29;99169.69;;;11.10;88.78
55373;BME280;70018;47.838;16.490;2023-09-18T04:52:56;99166.88;;;11.13;89.62
55373;BME280;70018;47.838;16.490;2023-09-18T04:55:24;99163.66;;;11.19;91.22
55373;BME280;70018;47.838;16.490;2023-09-18T04:57:50;99151.34;;;11.23;91.14
55373;BME280;70018;47.838;16.490;2023-09-18T05:00:17;99143.41;;;11.25;91.07
55373;BME280;70018;47.838;16.490;2023-09-18T05:02:49;99140.22;;;11.27;89.57
55373;BME280;70018;47.838;16.490;2023-09-18T05:05:16;99145.34;;;11.32;88.85
55373;BME280;70018;47.838;16.490;2023-09-18T05:07:44;99150.91;;;11.32;88.00
55373;BME280;70018;47.838;16.490;2023-09-18T05:10:10;99157.63;;;11.34;88.32
55373;BME280;70018;47.838;16.490;2023-09-18T05:12:40;99163.94;;;11.38;88.41
55373;BME280;70018;47.838;16.490;2023-09-18T05:15:10;99157.16;;;11.43;88.06
55373;BME280;70018;47.838;16.490;2023-09-18T05:17:44;99152.34;;;11.50;88.12
55373;BME280;70018;47.838;16.490;2023-09-18T05:20:18;99150.38;;;11.54;88.05
55373;BME280;70018;47.838;16.490;2023-09-18T05:22:45;99157.13;;;11.53;89.06
55373;BME280;70018;47.838;16.490;2023-09-18T05:25:12;99144.81;;;11.51;88.98
55373;BME280;70018;47.838;16.490;2023-09-18T05:27:42;99141.22;;;11.57;88.60
55373;BME280;70018;47.838;16.490;2023-09-18T05:30:17;99148.38;;;11.51;90.05
55373;BME280;70018;47.838;16.490;2023-09-18T05:32:47;99142.78;;;11.58;89.97
55373;BME280;70018;47.838;16.490;2023-09-18T05:35:14;99151.44;;;11.71;88.33
55373;BME280;70018;47.838;16.490;2023-09-18T05:37:41;99147.47;;;11.72;87.74
55373;BME280;70018;47.838;16.490;2023-09-18T05:40:10;99141.94;;;11.68;88.08
55373;BME280;70018;47.838;16.490;2023-09-18T05:42:37;99145.88;;;11.71;88.14
55373;BME280;70018;47.838;16.490;2023-09-18T05:45:05;99134.81;;;11.67;87.96
55373;BME280;70018;47.838;16.490;2023-09-18T05:47:33;99130.88;;;11.61;88.45
55373;BME280;70018;47.838;16.490;2023-09-18T05:50:00;99128.84;;;11.65;88.12
55373;BME280;70018;47.838;16.490;2023-09-18T05:52:26;99124.81;;;11.73;87.96
55373;BME280;70018;47.838;16.490;2023-09-18T05:54:53;99131.81;;;11.89;87.75
55373;BME280;70018;47.838;16.490;2023-09-18T05:57:19;99119.47;;;11.93;87.45
55373;BME280;70018;47.838;16.490;2023-09-18T05:59:46;99127.28;;;12.05;87.29
55373;BME280;70018;47.838;16.490;2023-09-18T06:02:13;99126.56;;;11.98;87.67
55373;BME280;70018;47.838;16.490;2023-09-18T06:04:42;99122.56;;;12.02;87.35
55373;BME280;70018;47.838;16.490;2023-09-18T06:07:09;99123.41;;;12.36;86.56
55373;BME280;70018;47.838;16.490;2023-09-18T06:09:36;99119.91;;;12.66;86.41
55373;BME280;70018;47.838;16.490;2023-09-18T06:12:03;99121.78;;;12.76;85.25
55373;BME280;70018;47.838;16.490;2023-09-18T06:14:31;99101.69;;;12.92;84.90
55373;BME280;70018;47.838;16.490;2023-09-18T06:17:01;99109.41;;;13.08;83.83
55373;BME280;70018;47.838;16.490;2023-09-18T06:19:27;99104.94;;;13.17;84.14
55373;BME280;70018;47.838;16.490;2023-09-18T06:21:54;99111.28;;;13.18;84.13
55373;BME280;70018;47.838;16.490;2023-09-18T06:24:20;99109.16;;;13.25;83.63
55373;BME280;70018;47.838;16.490;2023-09-18T06:26:47;99119.00;;;13.07;84.07
55373;BME280;70018;47.838;16.490;2023-09-18T06:29:14;99110.44;;;12.90;86.08
55373;BME280;70018;47.838;16.490;2023-09-18T06:31:40;99112.50;;;13.17;85.72
55373;BME280;70018;47.838;16.490;2023-09-18T06:34:07;99100.84;;;13.52;83.93
55373;BME280;70018;47.838;16.490;2023-09-18T06:36:34;99114.19;;;13.64;82.66
55373;BME280;70018;47.838;16.490;2023-09-18T06:39:01;99112.97;;;13.65;82.74
55373;BME280;70018;47.838;16.490;2023-09-18T06:41:27;99109.88;;;13.83;82.42
55373;BME280;70018;47.838;16.490;2023-09-18T06:43:54;99108.91;;;13.93;82.16
55373;BME280;70018;47.838;16.490;2023-09-18T06:46:20;99097.03;;;14.12;81.73
55373;BME280;70018;47.838;16.490;2023-09-18T06:48:49;99105.97;;;14.23;81.18
55373;BME280;70018;47.838;16.490;2023-09-18T06:51:18;99102.56;;;14.35;81.09
55373;BME280;70018;47.838;16.490;2023-09-18T06:54:02;99107.97;;;14.46;80.60
55373;BME280;70018;47.838;16.490;2023-09-18T06:56:29;99100.53;;;14.59;80.34
55373;BME280;70018;47.838;16.490;2023-09-18T06:58:55;99092.19;;;14.75;79.95
55373;BME280;70018;47.838;16.490;2023-09-18T07:01:22;99094.00;;;14.85;79.30
55373;BME280;70018;47.838;16.490;2023-09-18T07:03:50;99100.50;;;14.98;79.18
55373;BME280;70018;47.838;16.490;2023-09-18T07:06:17;99106.56;;;15.13;78.86
55373;BME280;70018;47.838;16.490;2023-09-18T07:08:46;99111.72;;;15.34;78.48
55373;BME280;70018;47.838;16.490;2023-09-18T07:11:17;99114.88;;;15.52;77.86
55373;BME280;70018;47.838;16.490;2023-09-18T07:13:43;99110.25;;;15.78;77.31
55373;BME280;70018;47.838;16.490;2023-09-18T07:16:10;99116.31;;;16.08;76.19
55373;BME280;70018;47.838;16.490;2023-09-18T07:18:37;99118.34;;;16.37;75.82
55373;BME280;70018;47.838;16.490;2023-09-18T07:21:04;99116.34;;;16.66;75.19
55373;BME280;70018;47.838;16.490;2023-09-18T07:23:31;99110.47;;;16.89;74.37
55373;BME280;70018;47.838;16.490;2023-09-18T07:25:58;99115.34;;;17.14;73.80
55373;BME280;70018;47.838;16.490;2023-09-18T07:28:25;99110.31;;;17.46;73.11
55373;BME280;70018;47.838;16.490;2023-09-18T07:30:51;99111.78;;;17.76;72.57
55373;BME280;70018;47.838;16.490;2023-09-18T07:33:18;99116.69;;;17.97;71.78
55373;BME280;70018;47.838;16.490;2023-09-18T07:35:47;99105.66;;;18.16;71.27
55373;BME280;70018;47.838;16.490;2023-09-18T07:38:14;99115.72;;;18.38;71.02
55373;BME280;70018;47.838;16.490;2023-09-18T07:40:41;99125.53;;;18.55;70.51
55373;BME280;70018;47.838;16.490;2023-09-18T07:43:08;99115.88;;;18.78;70.25
55373;BME280;70018;47.838;16.490;2023-09-18T07:45:37;99121.75;;;18.93;70.14
55373;BME280;70018;47.838;16.490;2023-09-18T07:48:04;99115.56;;;19.28;69.16
55373;BME280;70018;47.838;16.490;2023-09-18T07:50:33;99120.88;;;19.57;68.17
55373;BME280;70018;47.838;16.490;2023-09-18T07:53:01;99111.91;;;19.80;66.27
55373;BME280;70018;47.838;16.490;2023-09-18T07:55:28;99114.56;;;19.93;65.50
55373;BME280;70018;47.838;16.490;2023-09-18T07:57:56;99106.34;;;20.17;65.36
55373;BME280;70018;47.838;16.490;2023-09-18T08:00:22;99104.63;;;20.37;64.47
55373;BME280;70018;47.838;16.490;2023-09-18T08:02:49;99104.34;;;20.53;63.84
55373;BME280;70018;47.838;16.490;2023-09-18T08:05:17;99099.97;;;20.62;62.68
55373;BME280;70018;47.838;16.490;2023-09-18T08:07:43;99099.19;;;20.70;63.17
55373;BME280;70018;47.838;16.490;2023-09-18T08:10:11;99108.41;;;20.80;61.99
55373;BME280;70018;47.838;16.490;2023-09-18T08:12:39;99106.50;;;20.86;61.63
55373;BME280;70018;47.838;16.490;2023-09-18T08:15:06;99106.81;;;20.97;61.58
55373;BME280;70018;47.838;16.490;2023-09-18T08:17:33;99120.88;;;21.06;61.00
55373;BME280;70018;47.838;16.490;2023-09-18T08:20:00;99114.03;;;20.71;60.91
55373;BME280;70018;47.838;16.490;2023-09-18T08:22:26;99116.41;;;20.63;60.70
55373;BME280;70018;47.838;16.490;2023-09-18T08:24:53;99102.91;;;20.58;60.33
55373;BME280;70018;47.838;16.490;2023-09-18T08:27:20;99100.28;;;20.73;60.61
55373;BME280;70018;47.838;16.490;2023-09-18T08:29:47;99098.69;;;20.81;60.04
55373;BME280;70018;47.838;16.490;2023-09-18T08:32:14;99104.00;;;20.97;59.64
55373;BME280;70018;47.838;16.490;2023-09-18T08:34:40;99097.84;;;21.16;58.56
55373;BME280;70018;47.838;16.490;2023-09-18T08:37:07;99093.44;;;21.25;58.13
55373;BME280;70018;47.838;16.490;2023-09-18T08:39:35;99097.31;;;21.36;57.98
55373;BME280;70018;47.838;16.490;2023-09-18T08:42:05;99088.13;;;21.50;57.52
55373;BME280;70018;47.838;16.490;2023-09-18T08:44:35;99096.94;;;21.52;56.14
55373;BME280;70018;47.838;16.490;2023-09-18T08:47:04;99102.94;;;21.78;56.52
55373;BME280;70018;47.838;16.490;2023-09-18T08:49:32;99099.00;;;22.08;55.51
55373;BME280;70018;47.838;16.490;2023-09-18T08:51:59;99097.50;;;22.22;55.52
55373;BME280;70018;47.838;16.490;2023-09-18T08:54:26;99090.56;;;22.23;54.99
55373;BME280;70018;47.838;16.490;2023-09-18T08:56:55;99091.88;;;22.36;55.06
55373;BME280;70018;47.838;16.490;2023-09-18T08:59:21;99092.69;;;22.37;54.43
55373;BME280;70018;47.838;16.490;2023-09-18T09:01:48;99091.41;;;22.38;53.91
55373;BME280;70018;47.838;16.490;2023-09-18T09:04:15;99102.91;;;22.34;54.13
55373;BME280;70018;47.838;16.490;2023-09-18T09:06:42;99088.34;;;22.27;53.67
55373;BME280;70018;47.838;16.490;2023-09-18T09:09:10;99092.25;;;22.29;53.94
55373;BME280;70018;47.838;16.490;2023-09-18T09:11:39;99085.63;;;22.32;53.76
55373;BME280;70018;47.838;16.490;2023-09-18T09:14:10;99079.78;;;22.36;53.81
55373;BME280;70018;47.838;16.490;2023-09-18T09:16:55;99074.69;;;22.49;52.95
55373;BME280;70018;47.838;16.490;2023-09-18T09:19:35;99081.38;;;22.37;52.57
55373;BME280;70018;47.838;16.490;2023-09-18T09:22:05;99088.31;;;22.12;53.07
55373;BME280;70018;47.838;16.490;2023-09-18T09:24:38;99078.38;;;22.17;53.14
55373;BME280;70018;47.838;16.490;2023-09-18T09:27:05;99078.88;;;22.30;52.66
55373;BME280;70018;47.838;16.490;2023-09-18T09:29:32;99067.28;;;22.28;52.81
55373;BME280;70018;47.838;16.490;2023-09-18T09:32:15;99066.31;;;22.31;52.72
55373;BME280;70018;47.838;16.490;2023-09-18T09:34:44;99067.69;;;22.35;52.94
55373;BME280;70018;47.838;16.490;2023-09-18T09:37:12;99058.22;;;22.62;52.53
55373;BME280;70018;47.838;16.490;2023-09-18T09:39:50;99051.00;;;22.61;52.52
55373;BME280;70018;47.838;16.490;2023-09-18T09:42:18;99036.84;;;22.61;51.86
55373;BME280;70018;47.838;16.490;2023-09-18T09:45:11;99026.22;;;22.85;51.71
55373;BME280;70018;47.838;16.490;2023-09-18T09:47:42;99022.91;;;23.16;51.64
55373;BME280;70018;47.838;16.490;2023-09-18T09:50:14;99017.66;;;23.09;50.80
55373;BME280;70018;47.838;16.490;2023-09-18T09:52:50;99015.00;;;23.05;51.00
55373;BME280;70018;47.838;16.490;2023-09-18T09:57:49;99027.75;;;22.42;51.20
55373;BME280;70018;47.838;16.490;2023-09-18T10:00:16;99023.41;;;22.32;51.35
55373;BME280;70018;47.838;16.490;2023-09-18T10:02:57;99029.94;;;22.24;51.78
55373;BME280;70018;47.838;16.490;2023-09-18T10:05:27;99021.34;;;22.57;51.48
55373;BME280;70018;47.838;16.490;2023-09-18T10:08:00;99013.69;;;22.48;51.21
55373;BME280;70018;47.838;16.490;2023-09-18T10:10:30;99009.63;;;22.49;51.49
55373;BME280;70018;47.838;16.490;2023-09-18T10:13:15;99005.72;;;22.61;51.37
55373;BME280;70018;47.838;16.490;2023-09-18T10:15:43;99004.06;;;22.84;50.86
55373;BME280;70018;47.838;16.490;2023-09-18T10:18:19;99005.53;;;22.94;50.37
55373;BME280;70018;47.838;16.490;2023-09-18T10:20:51;98993.22;;;23.12;49.38
55373;BME280;70018;47.838;16.490;2023-09-18T10:23:27;98981.13;;;23.46;49.55
55373;BME280;70018;47.838;16.490;2023-09-18T10:26:01;98992.22;;;23.64;48.96
55373;BME280;70018;47.838;16.490;2023-09-18T10:28:30;98989.19;;;23.53;48.55
55373;BME280;70018;47.838;16.490;2023-09-18T10:30:57;98987.72;;;23.23;49.06
55373;BME280;70018;47.838;16.490;2023-09-18T10:33:25;98987.16;;;22.75;50.13
55373;BME280;70018;47.838;16.490;2023-09-18T10:35:53;98985.81;;;22.70;50.21
55373;BME280;70018;47.838;16.490;2023-09-18T10:38:20;98987.38;;;22.71;49.96
55373;BME280;70018;47.838;16.490;2023-09-18T10:40:50;98980.84;;;22.51;50.61
55373;BME280;70018;47.838;16.490;2023-09-18T10:43:17;98981.22;;;22.73;49.92
55373;BME280;70018;47.838;16.490;2023-09-18T10:45:45;98962.88;;;22.83;49.64
55373;BME280;70018;47.838;16.490;2023-09-18T10:48:12;98957.97;;;22.98;49.49
55373;BME280;70018;47.838;16.490;2023-09-18T10:53:15;98953.50;;;23.06;49.22
55373;BME280;70018;47.838;16.490;2023-09-18T10:55:42;98961.69;;;23.39;49.42
55373;BME280;70018;47.838;16.490;2023-09-18T10:58:09;98952.06;;;23.51;48.29
55373;BME280;70018;47.838;16.490;2023-09-18T11:00:36;98946.72;;;23.73;48.11
55373;BME280;70018;47.838;16.490;2023-09-18T11:03:16;98945.16;;;23.72;47.18
55373;BME280;70018;47.838;16.490;2023-09-18T11:05:48;98956.25;;;23.55;48.17
55373;BME280;70018;47.838;16.490;2023-09-18T11:08:34;98931.56;;;23.76;48.05
55373;BME280;70018;47.838;16.490;2023-09-18T11:11:09;98937.69;;;23.95;48.04
55373;BME280;70018;47.838;16.490;2023-09-18T11:13:45;98941.31;;;23.95;47.83
55373;BME280;70018;47.838;16.490;2023-09-18T11:19:07;98930.50;;;23.94;48.17
55373;BME280;70018;47.838;16.490;2023-09-18T11:21:35;98923.06;;;23.76;47.74
55373;BME280;70018;47.838;16.490;2023-09-18T11:26:32;98931.53;;;23.96;47.76
55373;BME280;70018;47.838;16.490;2023-09-18T11:29:14;98929.06;;;24.04;47.86
55373;BME280;70018;47.838;16.490;2023-09-18T11:31:51;98917.91;;;24.00;47.52
55373;BME280;70018;47.838;16.490;2023-09-18T11:34:24;98923.38;;;24.24;47.56
55373;BME280;70018;47.838;16.490;2023-09-18T11:37:21;98913.19;;;24.17;47.51
55373;BME280;70018;47.838;16.490;2023-09-18T11:39:48;98911.31;;;24.34;46.92
55373;BME280;70018;47.838;16.490;2023-09-18T11:42:20;98908.97;;;24.59;46.78
55373;BME280;70018;47.838;16.490;2023-09-18T11:44:49;98910.91;;;24.73;46.09
55373;BME280;70018;47.838;16.490;2023-09-18T11:47:17;98911.53;;;24.57;46.33
55373;BME280;70018;47.838;16.490;2023-09-18T11:49:55;98899.16;;;24.60;46.15
55373;BME280;70018;47.838;16.490;2023-09-18T11:52:29;98895.59;;;24.65;45.88
55373;BME280;70018;47.838;16.490;2023-09-18T11:55:00;98898.53;;;24.45;46.09
55373;BME280;70018;47.838;16.490;2023-09-18T11:57:27;98895.03;;;24.29;46.03
55373;BME280;70018;47.838;16.490;2023-09-18T11:59:56;98888.03;;;24.25;46.35
55373;BME280;70018;47.838;16.490;2023-09-18T12:02:27;98891.22;;;24.12;46.05
55373;BME280;70018;47.838;16.490;2023-09-18T12:04:55;98884.97;;;24.28;46.06
55373;BME280;70018;47.838;16.490;2023-09-18T12:07:23;98876.19;;;24.26;46.07
55373;BME280;70018;47.838;16.490;2023-09-18T12:09:51;98887.53;;;24.26;46.14
55373;BME280;70018;47.838;16.490;2023-09-18T12:12:17;98880.41;;;24.37;46.19
55373;BME280;70018;47.838;16.490;2023-09-18T12:14:44;98868.38;;;24.47;45.81
55373;BME280;70018;47.838;16.490;2023-09-18T12:17:15;98870.59;;;24.38;46.08
55373;BME280;70018;47.838;16.490;2023-09-18T12:20:00;98880.19;;;24.40;45.61
55373;BME280;70018;47.838;16.490;2023-09-18T12:22:28;98875.81;;;24.45;45.58
55373;BME280;70018;47.838;16.490;2023-09-18T12:25:11;98871.34;;;24.64;45.61
55373;BME280;70018;47.838;16.490;2023-09-18T12:27:42;98862.00;;;24.58;45.67
55373;BME280;70018;47.838;16.490;2023-09-18T12:30:10;98874.41;;;24.29;45.71
55373;BME280;70018;47.838;16.490;2023-09-18T12:32:38;98867.03;;;24.17;46.37
55373;BME280;70018;47.838;16.490;2023-09-18T12:35:06;98865.81;;;23.52;47.16
55373;BME280;70018;47.838;16.490;2023-09-18T12:37:40;98853.06;;;23.42;47.22
55373;BME280;70018;47.838;16.490;2023-09-18T12:40:29;98847.09;;;23.20;47.54
55373;BME280;70018;47.838;16.490;2023-09-18T12:45:32;98834.56;;;23.46;47.19
55373;BME280;70018;47.838;16.490;2023-09-18T12:47:59;98839.28;;;23.55;46.90
55373;BME280;70018;47.838;16.490;2023-09-18T12:50:26;98845.28;;;23.57;46.70
55373;BME280;70018;47.838;16.490;2023-09-18T12:52:53;98843.56;;;23.65;46.12
55373;BME280;70018;47.838;16.490;2023-09-18T12:55:28;98839.81;;;23.73;46.06
55373;BME280;70018;47.838;16.490;2023-09-18T12:57:55;98829.38;;;23.45;46.87
55373;BME280;70018;47.838;16.490;2023-09-18T13:00:22;98830.97;;;23.46;46.67
55373;BME280;70018;47.838;16.490;2023-09-18T13:02:50;98834.41;;;23.55;46.79
55373;BME280;70018;47.838;16.490;2023-09-18T13:05:23;98828.91;;;23.46;46.87
55373;BME280;70018;47.838;16.490;2023-09-18T13:07:54;98834.34;;;23.50;46.63
55373;BME280;70018;47.838;16.490;2023-09-18T13:10:20;98827.47;;;23.56;46.65
55373;BME280;70018;47.838;16.490;2023-09-18T13:12:53;98822.28;;;23.29;47.29